Time;durP1;ratioP1;P1;durP2;ratioP2;P2;SDS_P1;SDS_P2;PMS_P1;PMS_P2;Temp;Humidity;BMP_temperature;BMP_pressure;BME280_temperature;BME280_humidity;BME280_pressure;Samples;Min_cycle;Max_cycle;Signal;HPM_P1;HPM_P2
2022/10/22 00:02:27;;;;;;;2.57;2.37;;;18.30;80.80;18.70;96165.00;;;;5032448;28;20272;-83
2022/10/22 00:04:55;;;;;;;2.40;2.20;;;18.30;80.80;18.70;96161.00;;;;5031361;28;20209;-83
2022/10/22 00:07:23;;;;;;;4.23;2.30;;;18.30;80.80;18.70;96161.00;;;;5029981;28;20208;-83
2022/10/22 00:09:50;;;;;;;2.20;2.00;;;18.30;80.80;18.70;96166.00;;;;5031337;28;20297;-84
2022/10/22 00:12:18;;;;;;;4.07;2.20;;;18.40;80.90;18.70;96163.00;;;;5030641;28;20276;-83
2022/10/22 00:14:46;;;;;;;1.87;1.73;;;18.40;80.90;18.70;96175.00;;;;5029820;28;20217;-84
2022/10/22 00:17:13;;;;;;;1.90;1.57;;;18.40;80.90;18.70;96165.00;;;;5030194;28;20303;-83
2022/10/22 00:19:41;;;;;;;1.87;1.67;;;18.40;80.90;18.70;96171.00;;;;5030662;28;20629;-83
2022/10/22 00:22:09;;;;;;;3.33;2.00;;;18.40;80.90;18.70;96172.00;;;;5031176;28;20232;-83
2022/10/22 00:24:38;;;;;;;1.90;1.80;;;18.40;81.00;18.80;96164.00;;;;5033705;28;20213;-83
2022/10/22 00:27:08;;;;;;;2.57;2.03;;;18.40;81.00;18.80;96168.00;;;;5031835;28;20247;-83
2022/10/22 00:29:35;;;;;;;1.80;1.70;;;18.40;81.00;18.80;96174.00;;;;5032345;28;20213;-83
2022/10/22 00:32:04;;;;;;;2.03;1.73;;;18.40;81.10;18.80;96173.00;;;;5031685;28;20213;-82
2022/10/22 00:34:31;;;;;;;1.70;1.50;;;18.40;81.10;18.80;96179.00;;;;5032790;28;20636;-82
2022/10/22 00:36:58;;;;;;;2.20;1.70;;;18.40;81.00;18.80;96170.00;;;;5033493;28;20221;-82
2022/10/22 00:39:28;;;;;;;2.70;1.53;;;18.40;81.00;18.80;96170.00;;;;5033561;28;20221;-82
2022/10/22 00:41:57;;;;;;;1.93;1.73;;;18.40;81.10;18.80;96169.00;;;;5032082;28;20233;-82
2022/10/22 00:45:07;;;;;;;4.77;2.47;;;18.40;81.10;18.80;96184.00;;;;5029696;28;20321;-83
2022/10/22 00:47:39;;;;;;;1.70;1.60;;;18.40;81.30;18.80;96186.00;;;;5031703;28;20248;-83
2022/10/22 00:50:12;;;;;;;2.10;2.00;;;18.50;81.10;18.90;96193.00;;;;5032696;28;20261;-82
2022/10/22 00:52:40;;;;;;;1.87;1.77;;;18.50;81.10;18.90;96211.00;;;;5031678;28;20308;-82
2022/10/22 00:55:09;;;;;;;2.07;1.80;;;18.50;81.10;18.90;96209.00;;;;5030707;28;20654;-83
2022/10/22 00:57:37;;;;;;;1.70;1.60;;;18.50;81.10;18.90;96212.00;;;;5031090;28;20517;-82
2022/10/22 01:00:07;;;;;;;2.33;1.70;;;18.50;81.10;18.90;96209.00;;;;5030816;28;20243;-82
2022/10/22 01:02:34;;;;;;;1.70;1.50;;;18.50;81.10;18.90;96228.00;;;;5030889;28;20237;-82
2022/10/22 01:05:01;;;;;;;1.73;1.43;;;18.50;81.10;18.90;96237.00;;;;5031079;28;20292;-82
2022/10/22 01:07:29;;;;;;;1.20;0.93;;;18.50;81.20;18.90;96243.00;;;;5028962;28;20256;-82
2022/10/22 01:10:12;;;;;;;0.80;0.80;;;18.50;82.00;18.90;96254.00;;;;5031105;28;20287;-82
2022/10/22 01:12:49;;;;;;;0.50;0.50;;;18.50;81.50;18.90;96255.00;;;;5024940;28;20267;-81
2022/10/22 01:15:29;;;;;;;0.93;0.40;;;18.50;81.50;18.90;96244.00;;;;5027310;28;20284;-82
2022/10/22 01:18:06;;;;;;;0.47;0.43;;;18.50;81.80;18.90;96238.00;;;;5030112;28;20284;-80
2022/10/22 01:20:56;;;;;;;1.77;0.57;;;18.50;82.00;18.80;96232.00;;;;5032884;28;20820;-81
2022/10/22 01:24:05;;;;;;;0.53;0.43;;;18.50;82.50;18.80;96237.00;;;;5033176;28;20244;-81
2022/10/22 01:26:51;;;;;;;0.40;0.40;;;18.50;82.60;18.80;96230.00;;;;5035008;28;20221;-81
2022/10/22 01:29:26;;;;;;;0.47;0.47;;;18.50;82.60;18.80;96213.00;;;;5036055;28;20232;-81
2022/10/22 01:32:00;;;;;;;0.40;0.40;;;18.50;82.80;18.80;96210.00;;;;5033736;28;20235;-81
2022/10/22 01:34:30;;;;;;;0.97;0.50;;;18.50;82.90;18.80;96212.00;;;;5032669;28;20280;-81
2022/10/22 01:36:59;;;;;;;1.07;0.50;;;18.50;83.00;18.80;96198.00;;;;5033964;28;20244;-82
2022/10/22 01:39:30;;;;;;;0.63;0.50;;;18.40;83.00;18.80;96193.00;;;;5033442;28;20209;-82
2022/10/22 01:41:58;;;;;;;0.40;0.40;;;18.40;83.10;18.80;96197.00;;;;5033467;28;20271;-83
2022/10/22 01:44:30;;;;;;;0.70;0.57;;;18.40;83.20;18.80;96181.00;;;;5033733;28;20826;-83
2022/10/22 01:47:15;;;;;;;0.57;0.53;;;18.40;83.20;18.80;96195.00;;;;5033971;28;20620;-82
2022/10/22 01:50:13;;;;;;;1.67;0.50;;;18.40;83.40;18.80;96206.00;;;;5031872;28;20186;-83
2022/10/22 01:53:01;;;;;;;0.50;0.50;;;18.40;83.70;18.80;96219.00;;;;5032935;28;20648;-83
2022/10/22 01:55:41;;;;;;;0.47;0.47;;;18.40;83.70;18.80;96217.00;;;;5032932;28;20201;-83
2022/10/22 01:58:24;;;;;;;0.57;0.50;;;18.40;83.60;18.80;96212.00;;;;5033637;28;20249;-83
2022/10/22 02:01:03;;;;;;;0.40;0.40;;;18.50;83.90;18.80;96228.00;;;;5033343;28;20202;-83
2022/10/22 02:03:40;;;;;;;0.80;0.60;;;18.50;84.00;18.80;96232.00;;;;5034223;28;20244;-83
2022/10/22 02:06:16;;;;;;;0.50;0.50;;;18.50;83.90;18.80;96228.00;;;;5033968;28;20215;-84
2022/10/22 02:08:46;;;;;;;0.60;0.50;;;18.50;83.90;18.80;96228.00;;;;5033755;28;20231;-83
2022/10/22 02:11:15;;;;;;;0.50;0.50;;;18.50;83.90;18.80;96216.00;;;;5031667;28;20205;-83
2022/10/22 02:13:48;;;;;;;1.27;0.60;;;18.50;84.00;18.80;96219.00;;;;5034740;28;20237;-83
2022/10/22 02:16:24;;;;;;;1.00;0.67;;;18.50;84.10;18.80;96215.00;;;;5036446;28;20266;-81
2022/10/22 02:18:56;;;;;;;0.50;0.50;;;18.50;84.20;18.80;96219.00;;;;5035705;28;20276;-82
2022/10/22 02:21:23;;;;;;;0.40;0.40;;;18.50;84.20;18.80;96219.00;;;;5034910;28;20260;-81
2022/10/22 02:23:50;;;;;;;1.07;0.77;;;18.50;84.30;18.80;96236.00;;;;5035667;28;20217;-81
2022/10/22 02:26:28;;;;;;;1.50;0.60;;;18.50;84.40;18.80;96244.00;;;;5034339;28;20225;-81
2022/10/22 02:29:05;;;;;;;0.70;0.70;;;18.50;84.70;18.90;96245.00;;;;5034111;28;20192;-81
2022/10/22 02:31:40;;;;;;;0.77;0.70;;;18.50;84.70;18.90;96249.00;;;;5031968;28;20251;-81
2022/10/22 02:34:12;;;;;;;0.57;0.57;;;18.50;84.60;18.90;96253.00;;;;5033930;28;20308;-81
2022/10/22 02:36:42;;;;;;;1.13;0.60;;;18.50;84.50;18.90;96266.00;;;;5033823;28;20221;-81
2022/10/22 02:39:12;;;;;;;1.33;0.70;;;18.50;84.60;18.90;96269.00;;;;5034656;28;20241;-81
2022/10/22 02:41:40;;;;;;;0.80;0.60;;;18.50;84.60;18.80;96266.00;;;;5034514;28;20239;-81
2022/10/22 02:44:09;;;;;;;2.53;0.93;;;18.50;84.60;18.80;96266.00;;;;5034779;28;20241;-81
2022/10/22 02:46:38;;;;;;;0.63;0.50;;;18.50;84.60;18.80;96273.00;;;;5034256;28;20231;-80
2022/10/22 02:49:06;;;;;;;0.83;0.80;;;18.50;84.60;18.80;96266.00;;;;5032563;28;20217;-81
2022/10/22 02:51:33;;;;;;;0.60;0.60;;;18.50;84.60;18.80;96270.00;;;;5034586;28;20689;-82
2022/10/22 02:54:00;;;;;;;1.03;0.90;;;18.40;84.50;18.80;96267.00;;;;5033073;28;20248;-82
2022/10/22 02:56:27;;;;;;;0.80;0.63;;;18.40;84.60;18.80;96273.00;;;;5035293;28;20193;-82
2022/10/22 02:58:54;;;;;;;1.40;0.83;;;18.40;84.70;18.80;96271.00;;;;5034509;28;20256;-81
2022/10/22 03:01:22;;;;;;;0.77;0.77;;;18.40;84.70;18.80;96273.00;;;;5033748;28;20220;-80
2022/10/22 03:03:50;;;;;;;0.70;0.70;;;18.40;84.80;18.80;96282.00;;;;5035475;28;20249;-81
2022/10/22 03:06:18;;;;;;;0.80;0.70;;;18.40;84.90;18.80;96277.00;;;;5031964;28;20636;-81
2022/10/22 03:08:45;;;;;;;0.77;0.70;;;18.40;85.00;18.80;96277.00;;;;5031068;28;20288;-82
2022/10/22 03:11:12;;;;;;;0.70;0.70;;;18.40;85.00;18.80;96277.00;;;;5032690;28;20261;-81
2022/10/22 03:13:40;;;;;;;1.07;0.90;;;18.40;85.10;18.80;96272.00;;;;5034610;28;20609;-81
2022/10/22 03:16:07;;;;;;;1.67;0.70;;;18.40;85.10;18.80;96271.00;;;;5033440;28;20841;-81
2022/10/22 03:18:34;;;;;;;0.80;0.60;;;18.40;85.20;18.80;96274.00;;;;5033816;28;20706;-80
2022/10/22 03:21:12;;;;;;;0.63;0.63;;;18.40;85.20;18.80;96270.00;;;;5037678;28;20673;-80
2022/10/22 03:23:42;;;;;;;1.63;0.80;;;18.40;85.40;18.80;96261.00;;;;5035408;28;20228;-80
2022/10/22 03:26:13;;;;;;;0.80;0.73;;;18.40;85.40;18.80;96259.00;;;;5033559;28;20217;-80
2022/10/22 03:28:42;;;;;;;0.77;0.60;;;18.40;85.40;18.80;96270.00;;;;5035277;28;20288;-81
2022/10/22 03:31:09;;;;;;;2.07;0.63;;;18.40;85.40;18.80;96266.00;;;;5033692;28;20292;-81
2022/10/22 03:33:36;;;;;;;0.70;0.67;;;18.40;85.50;18.80;96273.00;;;;5034400;28;20565;-81
2022/10/22 03:36:07;;;;;;;1.47;0.67;;;18.40;85.40;18.80;96267.00;;;;5034287;28;20201;-81
2022/10/22 03:38:36;;;;;;;0.83;0.70;;;18.40;85.50;18.80;96269.00;;;;5035766;28;20279;-82
2022/10/22 03:41:03;;;;;;;0.97;0.87;;;18.40;85.50;18.80;96259.00;;;;5033213;28;20233;-82
2022/10/22 03:43:31;;;;;;;1.70;0.87;;;18.50;85.50;18.80;96262.00;;;;5036413;28;20588;-82
2022/10/22 03:45:58;;;;;;;1.47;0.57;;;18.50;85.60;18.80;96260.00;;;;5030912;28;20197;-81
2022/10/22 03:48:25;;;;;;;0.80;0.70;;;18.50;85.60;18.80;96273.00;;;;5032913;28;20217;-83
2022/10/22 03:50:52;;;;;;;0.87;0.60;;;18.50;85.60;18.80;96275.00;;;;5037633;28;20626;-82
2022/10/22 03:53:21;;;;;;;1.17;0.60;;;18.50;85.50;18.70;96273.00;;;;5036840;28;20237;-81
2022/10/22 03:55:48;;;;;;;0.50;0.47;;;18.40;85.40;18.70;96270.00;;;;5037111;28;20229;-81
2022/10/22 03:58:15;;;;;;;0.70;0.70;;;18.40;85.50;18.70;96279.00;;;;5037907;28;20312;-82
2022/10/22 04:00:42;;;;;;;0.50;0.50;;;18.40;85.50;18.70;96296.00;;;;5032725;28;20281;-81
2022/10/22 04:03:10;;;;;;;0.60;0.50;;;18.40;85.50;18.70;96303.00;;;;5034776;28;20307;-81
2022/10/22 04:05:37;;;;;;;0.93;0.70;;;18.40;85.60;18.70;96307.00;;;;5035438;28;20841;-81
2022/10/22 04:08:04;;;;;;;0.67;0.47;;;18.40;85.60;18.70;96317.00;;;;5035911;28;20267;-81
2022/10/22 04:10:33;;;;;;;2.07;0.60;;;18.40;85.60;18.70;96308.00;;;;5036138;28;20201;-82
2022/10/22 04:13:00;;;;;;;0.50;0.50;;;18.40;85.70;18.70;96303.00;;;;5037007;28;20267;-82
2022/10/22 04:15:27;;;;;;;1.63;1.03;;;18.40;85.70;18.70;96305.00;;;;5031249;28;20216;-81
2022/10/22 04:17:55;;;;;;;0.47;0.43;;;18.30;85.60;18.70;96310.00;;;;5033376;28;20914;-81
2022/10/22 04:20:22;;;;;;;1.00;0.70;;;18.30;85.70;18.60;96309.00;;;;5035643;28;20289;-81
2022/10/22 04:22:49;;;;;;;0.40;0.40;;;18.30;85.70;18.60;96315.00;;;;5034960;28;20213;-81
2022/10/22 04:25:16;;;;;;;1.97;0.57;;;18.30;85.60;18.60;96315.00;;;;5035031;28;20617;-81
2022/10/22 04:27:45;;;;;;;0.60;0.60;;;18.30;85.60;18.60;96307.00;;;;5066876;22;20751;-91
2022/10/22 04:30:14;;;;;;;0.53;0.40;;;18.30;85.60;18.60;96315.00;;;;5070967;28;20639;-90
2022/10/22 04:32:41;;;;;;;0.50;0.30;;;18.30;85.70;18.60;96312.00;;;;5071225;28;20227;-91
2022/10/22 04:35:08;;;;;;;1.57;0.70;;;18.30;85.60;18.70;96311.00;;;;5073747;28;20265;-90
2022/10/22 04:37:36;;;;;;;1.37;0.53;;;18.30;85.60;18.60;96317.00;;;;5079399;28;20259;-91
2022/10/22 04:40:03;;;;;;;1.13;0.80;;;18.30;85.40;18.60;96312.00;;;;5086223;22;20259;-86
2022/10/22 04:42:31;;;;;;;0.50;0.47;;;18.30;85.30;18.60;96316.00;;;;5053560;28;20235;-86
2022/10/22 04:44:59;;;;;;;0.90;0.60;;;18.30;85.20;18.60;96318.00;;;;5048069;28;20296;-86
2022/10/22 04:47:26;;;;;;;0.70;0.60;;;18.30;85.10;18.50;96317.00;;;;5034435;28;20203;-86
2022/10/22 04:49:53;;;;;;;0.53;0.50;;;18.30;85.10;18.50;96321.00;;;;5033970;28;20288;-86
2022/10/22 04:52:21;;;;;;;1.00;0.57;;;18.30;85.00;18.50;96325.00;;;;5033632;28;20217;-85
2022/10/22 04:54:48;;;;;;;0.80;0.43;;;18.20;84.80;18.50;96319.00;;;;5033921;28;20227;-86
2022/10/22 04:57:15;;;;;;;0.80;0.80;;;18.20;84.90;18.50;96327.00;;;;5036327;28;20193;-85
2022/10/22 04:59:42;;;;;;;0.53;0.50;;;18.20;84.80;18.40;96324.00;;;;5033866;28;20235;-86
2022/10/22 05:02:10;;;;;;;0.50;0.50;;;18.20;84.80;18.40;96328.00;;;;5034054;28;20577;-86
2022/10/22 05:04:37;;;;;;;0.90;0.50;;;18.20;84.70;18.40;96332.00;;;;5014104;28;20281;-86
2022/10/22 05:07:04;;;;;;;0.77;0.77;;;18.10;84.50;18.40;96337.00;;;;5026382;28;20209;-86
2022/10/22 05:09:31;;;;;;;0.57;0.57;;;18.10;84.30;18.40;96346.00;;;;5033717;28;20574;-85
2022/10/22 05:11:58;;;;;;;0.73;0.70;;;18.10;84.00;18.30;96350.00;;;;5019797;28;20206;-86
2022/10/22 05:14:26;;;;;;;0.90;0.70;;;18.10;84.10;18.30;96350.00;;;;5030581;28;20280;-85
2022/10/22 05:16:54;;;;;;;0.67;0.67;;;18.00;84.20;18.30;96351.00;;;;5033276;28;20659;-85
2022/10/22 05:19:25;;;;;;;1.23;1.03;;;18.00;84.10;18.20;96345.00;;;;5033450;28;20705;-85
2022/10/22 05:21:54;;;;;;;1.50;0.90;;;18.00;84.10;18.20;96337.00;;;;5033637;28;20206;-85
2022/10/22 05:24:22;;;;;;;0.70;0.70;;;18.00;84.20;18.20;96339.00;;;;5013715;28;20220;-85
2022/10/22 05:26:50;;;;;;;2.70;0.90;;;17.90;84.30;18.20;96344.00;;;;5029019;28;20276;-86
2022/10/22 05:29:18;;;;;;;0.67;0.67;;;17.90;84.40;18.20;96349.00;;;;5033304;28;20202;-85
2022/10/22 05:31:45;;;;;;;0.60;0.53;;;17.90;84.40;18.20;96361.00;;;;5033190;28;20714;-85
2022/10/22 05:34:13;;;;;;;1.57;0.47;;;17.90;84.50;18.20;96353.00;;;;5033000;28;20218;-85
2022/10/22 05:36:42;;;;;;;0.60;0.60;;;17.90;84.50;18.20;96330.00;;;;5033306;28;20197;-86
2022/10/22 05:39:09;;;;;;;0.63;0.63;;;17.90;84.40;18.20;96328.00;;;;5032846;28;20511;-86
2022/10/22 05:41:37;;;;;;;0.53;0.40;;;17.90;84.30;18.20;96343.00;;;;5033023;28;20681;-85
2022/10/22 05:44:07;;;;;;;0.40;0.37;;;17.90;84.40;18.20;96354.00;;;;5077813;22;20223;-83
2022/10/22 05:46:39;;;;;;;0.40;0.40;;;17.90;84.50;18.20;96354.00;;;;5072308;28;20192;-82
2022/10/22 05:49:09;;;;;;;0.50;0.50;;;17.90;84.60;18.20;96355.00;;;;5073427;28;20703;-83
2022/10/22 05:51:37;;;;;;;0.60;0.60;;;17.80;84.70;18.20;96366.00;;;;5066685;28;20177;-82
2022/10/22 05:54:13;;;;;;;1.00;0.50;;;17.80;84.60;18.30;96375.00;;;;5068967;28;20243;-83
2022/10/22 05:56:40;;;;;;;0.50;0.50;;;17.90;84.70;18.30;96374.00;;;;5070934;28;20233;-83
2022/10/22 05:59:07;;;;;;;0.63;0.60;;;17.90;84.60;18.30;96371.00;;;;5072260;28;20287;-83
2022/10/22 06:01:38;;;;;;;0.60;0.57;;;17.90;84.60;18.30;96374.00;;;;5072996;28;20638;-83
2022/10/22 06:04:18;;;;;;;0.80;0.80;;;17.90;84.60;18.30;96373.00;;;;5071474;28;20262;-83
2022/10/22 06:06:59;;;;;;;0.53;0.53;;;17.90;84.50;18.30;96380.00;;;;5070971;28;20290;-85
2022/10/22 06:09:38;;;;;;;0.63;0.63;;;17.90;84.50;18.30;96385.00;;;;5070157;28;20280;-82
2022/10/22 06:12:11;;;;;;;0.53;0.53;;;17.90;84.60;18.30;96388.00;;;;5067486;28;20213;-83
2022/10/22 06:14:41;;;;;;;0.60;0.60;;;17.90;84.50;18.30;96382.00;;;;5068568;28;20202;-83
2022/10/22 06:17:13;;;;;;;0.70;0.57;;;17.90;84.50;18.30;96381.00;;;;5072465;28;20200;-83
2022/10/22 06:19:42;;;;;;;0.40;0.40;;;17.80;84.40;18.30;96383.00;;;;5071315;28;20215;-83
2022/10/22 06:22:17;;;;;;;0.70;0.50;;;17.80;84.30;18.30;96386.00;;;;5073385;28;20275;-83
2022/10/22 06:24:49;;;;;;;0.50;0.50;;;17.80;84.30;18.30;96374.00;;;;5070827;28;20207;-83
2022/10/22 06:27:19;;;;;;;0.63;0.63;;;17.80;84.30;18.30;96382.00;;;;5071021;28;20195;-83
2022/10/22 06:29:49;;;;;;;0.50;0.50;;;17.80;84.20;18.20;96376.00;;;;5070426;28;20246;-83
2022/10/22 06:32:19;;;;;;;1.20;0.63;;;17.80;84.20;18.20;96375.00;;;;5071736;28;20285;-83
2022/10/22 06:34:49;;;;;;;1.37;1.07;;;17.80;84.20;18.20;96383.00;;;;5074154;28;20200;-82
2022/10/22 06:37:22;;;;;;;0.90;0.60;;;17.80;84.20;18.20;96394.00;;;;5071225;28;20239;-82
2022/10/22 06:39:57;;;;;;;0.50;0.50;;;17.80;84.20;18.20;96396.00;;;;5070728;28;20211;-83
2022/10/22 06:42:29;;;;;;;0.80;0.80;;;17.80;84.30;18.20;96398.00;;;;5070302;28;20219;-83
2022/10/22 06:44:59;;;;;;;0.80;0.80;;;17.80;84.40;18.20;96399.00;;;;5066645;28;20698;-83
2022/10/22 06:47:30;;;;;;;1.43;0.90;;;17.80;84.40;18.20;96395.00;;;;5071597;28;20203;-83
2022/10/22 06:50:02;;;;;;;0.80;0.80;;;17.80;84.30;18.20;96397.00;;;;5071398;28;20212;-83
2022/10/22 06:52:29;;;;;;;1.83;1.13;;;17.80;84.30;18.20;96420.00;;;;5067992;28;20270;-84
2022/10/22 06:55:00;;;;;;;1.10;1.00;;;17.80;85.00;18.20;96428.00;;;;5070289;28;20265;-83
2022/10/22 06:57:27;;;;;;;1.00;0.90;;;17.80;84.40;18.20;96443.00;;;;5075591;28;20273;-83
2022/10/22 06:59:57;;;;;;;0.93;0.90;;;17.80;84.40;18.20;96444.00;;;;5073933;28;20735;-83
2022/10/22 07:02:25;;;;;;;1.27;0.90;;;17.70;84.40;18.20;96451.00;;;;5075011;28;20212;-82
2022/10/22 07:04:52;;;;;;;2.00;1.10;;;17.70;84.50;18.20;96453.00;;;;5075079;28;20257;-83
2022/10/22 07:07:19;;;;;;;1.13;1.00;;;17.70;84.50;18.30;96460.00;;;;5073594;28;20223;-84
2022/10/22 07:09:48;;;;;;;1.83;1.70;;;17.80;84.50;18.30;96477.00;;;;5071327;28;20236;-83
2022/10/22 07:12:18;;;;;;;1.20;1.10;;;17.80;84.50;18.30;96480.00;;;;5071562;28;20199;-83
2022/10/22 07:14:51;;;;;;;2.53;0.97;;;17.80;84.40;18.30;96499.00;;;;5072151;28;20231;-83
2022/10/22 07:17:18;;;;;;;2.23;1.27;;;17.80;84.40;18.30;96506.00;;;;5071042;28;20195;-82
2022/10/22 07:19:49;;;;;;;1.47;1.30;;;17.80;84.40;18.30;96505.00;;;;5073004;28;20314;-83
2022/10/22 07:22:32;;;;;;;1.37;1.27;;;17.80;84.50;18.30;96499.00;;;;5071553;28;20226;-83
2022/10/22 07:24:59;;;;;;;1.23;1.13;;;17.80;84.50;18.30;96494.00;;;;5072793;28;20239;-83
2022/10/22 07:27:30;;;;;;;1.23;0.90;;;17.80;84.50;18.40;96498.00;;;;5073894;28;20204;-83
2022/10/22 07:30:00;;;;;;;1.93;1.73;;;17.80;84.60;18.40;96500.00;;;;5074399;28;20204;-83
2022/10/22 07:32:29;;;;;;;1.10;1.00;;;17.80;84.60;18.40;96519.00;;;;5070528;28;20216;-83
2022/10/22 07:34:56;;;;;;;1.40;1.30;;;17.80;84.70;18.40;96512.00;;;;5073726;28;20631;-83
2022/10/22 07:37:26;;;;;;;1.53;1.43;;;17.90;85.60;18.40;96518.00;;;;5075178;28;20318;-83
2022/10/22 07:39:53;;;;;;;1.50;1.40;;;17.90;84.90;18.40;96530.00;;;;5064067;28;20303;-83
2022/10/22 07:42:28;;;;;;;0.70;0.70;;;17.90;84.80;18.40;96531.00;;;;5073743;28;20281;-83
2022/10/22 07:44:59;;;;;;;2.97;1.20;;;17.90;84.80;18.40;96536.00;;;;5067118;28;20856;-83
2022/10/22 07:47:28;;;;;;;2.10;1.30;;;17.90;84.70;18.40;96533.00;;;;5080405;28;20196;-83
2022/10/22 07:49:55;;;;;;;2.10;1.10;;;17.90;84.80;18.40;96532.00;;;;5074742;28;20210;-83
2022/10/22 07:52:25;;;;;;;0.90;0.77;;;17.90;84.80;18.50;96541.00;;;;5073452;28;20649;-83
2022/10/22 07:54:55;;;;;;;0.73;0.73;;;18.00;84.80;18.50;96540.00;;;;5070396;28;20223;-83
2022/10/22 07:57:22;;;;;;;1.17;0.80;;;18.00;84.70;18.50;96537.00;;;;5073888;28;20210;-83
2022/10/22 08:00:00;;;;;;;0.70;0.70;;;18.00;84.70;18.50;96540.00;;;;5074917;28;20279;-83
2022/10/22 08:03:01;;;;;;;0.60;0.60;;;18.00;84.80;18.50;96539.00;;;;5083826;28;20219;-86
2022/10/22 08:05:35;;;;;;;0.63;0.60;;;18.00;84.80;18.60;96546.00;;;;5067574;28;20200;-84
2022/10/22 08:08:03;;;;;;;0.70;0.57;;;18.20;85.00;18.60;96557.00;;;;5080759;28;20208;-83
2022/10/22 08:10:30;;;;;;;0.77;0.53;;;18.10;84.90;18.60;96555.00;;;;5079140;28;20199;-84
2022/10/22 08:13:00;;;;;;;0.70;0.70;;;18.10;85.00;18.70;96554.00;;;;5076257;28;20251;-84
2022/10/22 08:15:30;;;;;;;0.87;0.80;;;18.10;85.10;18.70;96557.00;;;;5078155;28;20592;-82
2022/10/22 08:17:59;;;;;;;0.70;0.70;;;18.20;85.20;18.70;96549.00;;;;5076922;28;20200;-84
2022/10/22 08:20:29;;;;;;;0.77;0.60;;;18.20;85.10;18.80;96541.00;;;;5076663;28;20223;-84
2022/10/22 08:22:57;;;;;;;0.43;0.40;;;18.20;84.90;18.80;96547.00;;;;5075155;28;20230;-83
2022/10/22 08:25:24;;;;;;;0.90;0.60;;;18.30;84.80;18.80;96549.00;;;;5079684;28;20211;-83
2022/10/22 08:27:52;;;;;;;0.70;0.63;;;18.30;84.70;18.80;96561.00;;;;5081694;28;20211;-82
2022/10/22 08:30:20;;;;;;;0.70;0.60;;;18.30;84.60;18.80;96563.00;;;;5082440;28;20573;-82
2022/10/22 08:32:52;;;;;;;1.00;0.70;;;18.30;84.60;18.80;96569.00;;;;5078931;28;20250;-84
2022/10/22 08:35:25;;;;;;;0.40;0.40;;;18.30;84.40;18.90;96562.00;;;;5081543;28;20207;-83
2022/10/22 08:37:55;;;;;;;3.37;0.70;;;18.40;84.60;18.90;96565.00;;;;5080584;28;20245;-83
2022/10/22 08:40:30;;;;;;;0.50;0.50;;;18.40;84.70;18.90;96571.00;;;;5084455;28;20224;-81
2022/10/22 08:43:23;;;;;;;0.60;0.60;;;18.40;84.90;19.00;96574.00;;;;5083519;28;20233;-82
2022/10/22 08:46:12;;;;;;;1.90;1.00;;;18.50;84.80;19.00;96574.00;;;;5081875;28;20203;-84
2022/10/22 08:48:48;;;;;;;1.07;0.97;;;18.50;84.80;19.00;96576.00;;;;5082197;28;20207;-82
2022/10/22 08:51:19;;;;;;;1.40;1.23;;;18.50;84.70;19.10;96590.00;;;;5082961;28;20204;-82
2022/10/22 08:54:11;;;;;;;1.10;0.90;;;18.50;84.60;19.10;96595.00;;;;5078885;28;20752;-82
2022/10/22 08:56:44;;;;;;;0.60;0.60;;;18.60;84.50;19.10;96593.00;;;;5080908;28;20203;-82
2022/10/22 08:59:26;;;;;;;0.73;0.60;;;18.60;84.40;19.10;96589.00;;;;5080272;28;20232;-82
2022/10/22 09:01:55;;;;;;;0.47;0.40;;;18.60;84.10;19.10;96584.00;;;;5082908;28;20202;-82
2022/10/22 09:04:32;;;;;;;0.70;0.70;;;18.60;84.10;19.10;96595.00;;;;5082302;28;20230;-83
2022/10/22 09:07:00;;;;;;;0.70;0.40;;;18.60;84.10;19.10;96605.00;;;;5081698;28;20203;-83
2022/10/22 09:09:34;;;;;;;1.20;0.40;;;18.60;84.40;19.20;96603.00;;;;5081093;28;20249;-82
2022/10/22 09:12:03;;;;;;;2.73;0.53;;;18.70;84.30;19.20;96610.00;;;;5079769;28;20219;-82
2022/10/22 09:14:31;;;;;;;0.57;0.40;;;18.70;84.30;19.20;96605.00;;;;5079971;28;22255;-82
2022/10/22 09:17:27;;;;;;;0.53;0.50;;;18.70;84.40;19.20;96614.00;;;;5082754;28;20192;-84
2022/10/22 09:20:25;;;;;;;0.60;0.40;;;18.70;84.30;19.30;96605.00;;;;5073817;28;20243;-83
2022/10/22 09:23:11;;;;;;;0.60;0.50;;;18.80;84.30;19.30;96615.00;;;;5079946;28;20792;-81
2022/10/22 09:25:45;;;;;;;0.50;0.50;;;18.80;84.20;19.40;96626.00;;;;5079414;28;20215;-84
2022/10/22 09:28:13;;;;;;;0.47;0.47;;;18.80;84.20;19.40;96635.00;;;;5082450;28;20223;-83
2022/10/22 09:30:42;;;;;;;0.70;0.60;;;18.90;84.10;19.40;96631.00;;;;5077174;28;20192;-82
2022/10/22 09:33:21;;;;;;;0.50;0.50;;;18.80;83.80;19.40;96631.00;;;;5078803;28;20696;-82
2022/10/22 09:35:55;;;;;;;0.37;0.37;;;18.90;83.70;19.40;96635.00;;;;5079339;28;20275;-83
2022/10/22 09:38:31;;;;;;;1.13;0.53;;;18.90;83.80;19.40;96634.00;;;;5082922;28;20200;-83
2022/10/22 09:41:02;;;;;;;0.30;0.30;;;18.90;83.80;19.40;96632.00;;;;5081412;28;20239;-82
2022/10/22 09:43:34;;;;;;;0.40;0.40;;;19.00;83.90;19.50;96635.00;;;;5081164;28;20250;-82
2022/10/22 09:46:06;;;;;;;0.50;0.50;;;19.00;83.90;19.50;96634.00;;;;5084209;28;20223;-82
2022/10/22 09:48:38;;;;;;;0.30;0.30;;;19.00;83.90;19.50;96629.00;;;;5082074;28;20628;-84
2022/10/22 09:51:18;;;;;;;0.40;0.40;;;19.00;83.90;19.60;96631.00;;;;5081627;28;20192;-83
2022/10/22 09:54:00;;;;;;;0.50;0.43;;;19.10;83.90;19.60;96632.00;;;;5083821;28;20290;-83
2022/10/22 09:56:35;;;;;;;1.00;0.50;;;19.10;84.00;19.70;96637.00;;;;5081987;28;20191;-84
2022/10/22 09:59:09;;;;;;;1.03;0.60;;;19.10;83.90;19.70;96643.00;;;;5077920;28;20215;-82
2022/10/22 10:01:39;;;;;;;0.50;0.50;;;19.10;83.80;19.80;96644.00;;;;5079501;28;20277;-82
2022/10/22 10:04:11;;;;;;;1.17;0.60;;;19.20;83.90;19.80;96644.00;;;;5078392;28;20219;-82
2022/10/22 10:06:44;;;;;;;0.50;0.50;;;19.30;84.10;19.90;96644.00;;;;5077989;28;20253;-82
2022/10/22 10:09:17;;;;;;;0.30;0.30;;;19.30;83.80;19.90;96646.00;;;;5078986;28;20242;-84
2022/10/22 10:11:52;;;;;;;1.03;0.60;;;19.30;83.50;20.00;96648.00;;;;5075517;28;20207;-83
2022/10/22 10:14:30;;;;;;;0.30;0.30;;;19.40;83.70;20.00;96643.00;;;;5076426;28;20219;-81
2022/10/22 10:17:05;;;;;;;0.30;0.30;;;19.40;83.60;20.10;96648.00;;;;5080525;28;20211;-81
2022/10/22 10:20:01;;;;;;;0.47;0.17;;;19.40;83.50;20.10;96648.00;;;;5077520;28;20203;-82
2022/10/22 10:22:58;;;;;;;0.30;0.30;;;19.50;83.00;20.10;96648.00;;;;5077500;28;20220;-82
2022/10/22 10:25:48;;;;;;;0.60;0.40;;;19.50;83.00;20.10;96649.00;;;;5076833;28;20192;-83
2022/10/22 10:28:34;;;;;;;0.40;0.30;;;19.60;83.10;20.10;96650.00;;;;5077991;28;20268;-82
2022/10/22 10:31:14;;;;;;;2.00;0.40;;;19.50;82.90;20.10;96641.00;;;;5075453;28;20751;-82
2022/10/22 10:33:54;;;;;;;1.00;0.30;;;19.60;83.40;20.10;96643.00;;;;5081217;28;20226;-81
2022/10/22 10:36:33;;;;;;;0.37;0.23;;;19.60;82.80;20.10;96643.00;;;;5081305;28;20731;-85
2022/10/22 10:39:08;;;;;;;1.20;0.30;;;19.60;82.90;20.10;96638.00;;;;5081734;28;20199;-85
2022/10/22 10:41:54;;;;;;;0.40;0.40;;;19.60;83.00;20.00;96636.00;;;;5087405;22;20599;-83
2022/10/22 10:44:44;;;;;;;0.30;0.30;;;19.60;82.90;20.00;96631.00;;;;5056338;28;20674;-83
2022/10/22 10:47:30;;;;;;;0.30;0.30;;;19.60;82.90;20.00;96628.00;;;;5056139;28;20637;-83
2022/10/22 10:50:18;;;;;;;0.97;0.20;;;19.50;83.00;19.90;96631.00;;;;5055719;28;20208;-82
2022/10/22 10:53:01;;;;;;;0.47;0.47;;;19.50;83.10;19.90;96626.00;;;;5053156;28;20242;-83
2022/10/22 10:55:37;;;;;;;0.60;0.20;;;19.50;83.20;19.90;96632.00;;;;5056347;28;20201;-83
2022/10/22 10:58:15;;;;;;;0.60;0.40;;;19.40;83.20;19.90;96634.00;;;;5056776;28;20207;-85
2022/10/22 11:00:54;;;;;;;0.30;0.30;;;19.50;83.50;19.80;96638.00;;;;5055871;28;20204;-84
2022/10/22 11:04:17;;;;;;;0.30;0.30;;;19.40;83.60;19.90;96636.00;;;;5055810;28;20262;-85
2022/10/22 11:06:45;;;;;;;0.50;0.50;;;19.40;84.00;19.90;96636.00;;;;5041003;28;20295;-85
2022/10/22 11:09:25;;;;;;;0.60;0.60;;;19.40;83.80;19.90;96641.00;;;;5055107;28;20227;-85
2022/10/22 11:12:02;;;;;;;1.00;0.80;;;19.40;84.20;19.90;96641.00;;;;5054744;28;20208;-86
2022/10/22 11:14:38;;;;;;;0.90;0.90;;;19.40;84.30;19.90;96641.00;;;;5054027;28;20248;-84
2022/10/22 11:17:15;;;;;;;1.00;0.90;;;19.40;84.50;19.90;96636.00;;;;5055339;28;20291;-85
2022/10/22 11:19:48;;;;;;;0.80;0.80;;;19.50;84.50;20.00;96638.00;;;;5057917;28;20287;-84